createdAt,value
2017-07-17T11:32:46.545Z,933.55
2017-07-17T11:32:59.501Z,933.55
2017-07-17T11:33:12.409Z,933.55
2017-07-17T11:33:25.851Z,933.55
2017-07-17T11:33:38.765Z,933.53
2017-07-17T11:33:51.709Z,933.56
2017-07-17T11:34:05.131Z,933.56
2017-07-17T11:34:18.614Z,933.57
2017-07-17T11:34:31.555Z,933.52
2017-07-17T11:34:44.544Z,933.56
2017-07-17T11:34:57.981Z,933.55
2017-07-17T11:35:11.410Z,933.56
2017-07-17T11:35:23.857Z,933.58
2017-07-17T11:35:35.710Z,933.56
2017-07-17T11:35:48.648Z,933.54
2017-07-17T11:36:01.604Z,933.57
2017-07-17T11:36:14.532Z,933.58
2017-07-17T11:36:28.036Z,933.54
2017-07-17T11:36:40.932Z,933.57
2017-07-17T11:36:54.454Z,933.59
2017-07-17T11:37:07.384Z,933.58
2017-07-17T11:37:20.294Z,933.57
2017-07-17T11:37:32.687Z,933.61
2017-07-17T11:37:45.563Z,933.61
2017-07-17T11:37:58.924Z,933.63
2017-07-17T11:38:11.868Z,933.62
2017-07-17T11:38:24.765Z,933.64
2017-07-17T11:38:37.178Z,933.63
2017-07-17T11:38:50.599Z,933.66
2017-07-17T11:39:03.510Z,933.63
2017-07-17T11:39:16.938Z,933.65
2017-07-17T11:39:30.417Z,933.62
2017-07-17T11:39:42.867Z,933.63
2017-07-17T11:39:55.225Z,933.64
2017-07-17T11:40:08.152Z,933.64
2017-07-17T11:40:21.657Z,933.6
2017-07-17T11:40:35.106Z,933.63
2017-07-17T11:40:48.571Z,933.61
2017-07-17T11:41:00.444Z,933.65
2017-07-17T11:41:13.919Z,933.63
2017-07-17T11:41:26.314Z,933.6
2017-07-17T11:41:39.256Z,933.63
2017-07-17T11:41:51.087Z,933.61
2017-07-17T11:42:04.026Z,933.61
2017-07-17T11:42:17.087Z,933.6
2017-07-17T11:42:29.496Z,933.63
2017-07-17T11:42:41.372Z,933.6
2017-07-17T11:42:54.801Z,933.62
2017-07-17T11:43:08.244Z,933.58
2017-07-17T11:43:21.633Z,933.61
2017-07-17T11:43:34.630Z,933.6
2017-07-17T11:43:46.548Z,933.6
2017-07-17T11:44:00.078Z,933.6
2017-07-17T11:44:11.856Z,933.65
2017-07-17T11:44:24.777Z,933.61
2017-07-17T11:44:37.719Z,933.59
2017-07-17T11:44:51.166Z,933.61
2017-07-17T11:45:04.618Z,933.6
2017-07-17T11:45:18.084Z,933.61
2017-07-17T11:45:29.920Z,933.6
2017-07-17T11:45:42.289Z,933.62
2017-07-17T11:45:55.256Z,933.6
2017-07-17T11:56:05.546Z,933.59
2017-07-17T11:56:19.053Z,933.6
2017-07-17T11:56:32.455Z,933.6
2017-07-17T11:56:45.889Z,933.59
2017-07-17T11:56:59.329Z,933.57
2017-07-17T11:57:12.769Z,933.58
2017-07-17T11:58:24.602Z,933.58
2017-07-17T11:58:38.008Z,933.59
2017-07-17T11:58:50.957Z,933.57
2017-07-17T11:59:04.445Z,933.56
2017-07-17T11:59:17.887Z,933.61
2017-07-17T11:59:31.268Z,933.57
2017-07-17T11:59:44.164Z,933.61
2017-07-17T11:59:57.079Z,933.59
2017-07-17T12:00:10.521Z,933.62
2017-07-17T12:00:23.970Z,933.6
2017-07-17T12:00:37.439Z,933.61
2017-07-17T12:00:50.907Z,933.62
2017-07-17T12:01:04.340Z,933.59
2017-07-17T12:01:17.742Z,933.6
2017-07-17T12:01:31.167Z,933.61
2017-07-17T12:01:44.079Z,933.62
2017-07-17T12:01:57.516Z,933.59
2017-07-17T12:02:10.936Z,933.59
2017-07-17T12:02:24.343Z,933.6
2017-07-17T12:02:37.763Z,933.57
2017-07-17T12:02:51.213Z,933.58
2017-07-17T12:03:04.671Z,933.6
2017-07-17T12:03:18.088Z,933.62
2017-07-17T12:03:31.525Z,933.64
2017-07-17T12:03:44.972Z,933.63
2017-07-17T12:03:58.403Z,933.62
2017-07-17T12:04:11.855Z,933.64
2017-07-17T12:04:25.340Z,933.62
2017-07-17T12:04:38.263Z,933.65
2017-07-17T12:05:50.867Z,933.59
2017-07-17T12:06:03.263Z,933.61
2017-07-17T12:06:16.196Z,933.58
2017-07-17T12:06:29.655Z,933.58
2017-07-17T12:06:43.154Z,933.6
2017-07-17T12:06:55.521Z,933.56
2017-07-17T12:07:08.978Z,933.61
2017-07-17T12:07:21.872Z,933.61
2017-07-17T12:07:34.779Z,933.6
2017-07-17T12:07:47.157Z,933.59
2017-07-17T12:08:00.082Z,933.58
2017-07-17T12:08:13.574Z,933.65
2017-07-17T12:08:26.739Z,933.63
2017-07-17T12:08:39.671Z,933.6
2017-07-17T12:08:53.100Z,933.63
2017-07-17T12:09:06.035Z,933.65
2017-07-17T12:09:19.463Z,933.64
2017-07-17T12:09:32.333Z,933.61
2017-07-17T12:09:45.260Z,933.61
2017-07-17T12:09:58.766Z,933.61
2017-07-17T12:10:12.202Z,933.63
2017-07-17T12:10:25.675Z,933.62
2017-07-17T12:10:39.117Z,933.63
2017-07-17T12:10:52.017Z,933.66
2017-07-17T12:11:04.909Z,933.65
2017-07-17T12:11:18.323Z,933.65
2017-07-17T12:11:31.456Z,933.68
2017-07-17T12:11:44.980Z,933.64
2017-07-17T12:11:58.403Z,933.63
2017-07-17T12:12:10.769Z,933.66
2017-07-17T12:12:23.124Z,933.65
2017-07-17T12:12:35.530Z,933.63
2017-07-17T12:12:48.467Z,933.62
2017-07-17T12:13:01.937Z,933.63
2017-07-17T12:13:15.327Z,933.59
2017-07-17T12:13:27.708Z,933.6
2017-07-17T12:13:40.666Z,933.65
2017-07-17T12:13:54.126Z,933.66
2017-07-17T12:14:06.522Z,933.65
2017-07-17T12:14:19.359Z,933.61
2017-07-17T12:14:31.723Z,933.61
2017-07-17T12:14:45.196Z,933.63
2017-07-17T12:14:58.170Z,933.62
2017-07-17T12:15:11.076Z,933.61
2017-07-17T12:15:24.540Z,933.61
2017-07-17T12:15:38.036Z,933.64
2017-07-17T12:15:50.403Z,933.61
2017-07-17T12:16:02.847Z,933.63
2017-07-17T12:16:15.734Z,933.64
2017-07-17T12:16:28.632Z,933.66
2017-07-17T12:16:42.057Z,933.66
2017-07-17T12:16:55.047Z,933.64
2017-07-17T12:17:08.465Z,933.6
2017-07-17T12:17:21.948Z,933.67
2017-07-17T12:17:34.268Z,933.62
2017-07-17T12:17:46.674Z,933.65
2017-07-17T12:18:00.112Z,933.63
2017-07-17T12:18:13.586Z,933.66
2017-07-17T12:18:27.263Z,933.63
2017-07-17T12:18:40.670Z,933.67
2017-07-17T12:18:53.016Z,933.66
2017-07-17T12:19:05.914Z,933.62
2017-07-17T12:19:19.344Z,933.66
2017-07-17T12:19:32.804Z,933.62
2017-07-17T12:19:45.791Z,933.63
2017-07-17T12:19:58.198Z,933.64
2017-07-17T12:20:11.707Z,933.6
2017-07-17T12:20:25.175Z,933.57
2017-07-17T12:20:37.522Z,933.62
2017-07-17T12:20:50.432Z,933.62
2017-07-17T12:21:03.359Z,933.6
2017-07-17T12:21:16.301Z,933.6
2017-07-17T12:21:28.669Z,933.66
2017-07-17T12:21:42.131Z,933.64
2017-07-17T12:21:55.044Z,933.67
2017-07-17T12:22:07.484Z,933.66
2017-07-17T12:22:20.910Z,933.63
2017-07-17T12:22:32.748Z,933.63
2017-07-17T12:22:45.690Z,933.57
2017-07-17T12:22:59.185Z,933.61
2017-07-17T12:23:12.581Z,933.62
2017-07-17T12:23:26.000Z,933.6
2017-07-17T12:23:38.884Z,933.59
2017-07-17T12:23:51.747Z,933.55
2017-07-17T12:24:04.677Z,933.6
2017-07-17T12:24:18.084Z,933.61
2017-07-17T12:24:30.447Z,933.58
2017-07-17T12:24:43.990Z,933.65
2017-07-17T12:24:57.563Z,933.59
2017-07-17T12:25:10.425Z,933.6
2017-07-17T12:25:22.801Z,933.59
2017-07-17T12:25:35.683Z,933.59
2017-07-17T12:25:48.624Z,933.62
2017-07-17T12:26:02.133Z,933.64
2017-07-17T12:26:14.481Z,933.65
2017-07-17T12:26:27.910Z,933.62
2017-07-17T12:26:40.254Z,933.6
2017-07-17T12:26:53.686Z,933.63
2017-07-17T12:27:06.657Z,933.64
2017-07-17T12:27:20.038Z,933.64
2017-07-17T12:27:32.976Z,933.67
2017-07-17T12:27:46.390Z,933.62
2017-07-17T12:27:59.358Z,933.64
2017-07-17T12:28:12.837Z,933.65
2017-07-17T12:28:25.757Z,933.63
2017-07-17T12:28:39.184Z,933.65
2017-07-17T12:28:52.658Z,933.65
2017-07-17T12:29:06.126Z,933.7
2017-07-17T12:29:18.486Z,933.67
2017-07-17T12:29:31.953Z,933.67
2017-07-17T12:29:44.877Z,933.66
2017-07-17T12:29:57.753Z,933.67
2017-07-17T12:30:10.708Z,933.68
2017-07-17T12:30:24.162Z,933.69
2017-07-17T12:30:37.137Z,933.7
2017-07-17T12:30:50.632Z,933.73
2017-07-17T12:31:04.030Z,933.71
2017-07-17T12:31:16.945Z,933.67
2017-07-17T12:31:29.292Z,933.71
2017-07-17T12:31:42.734Z,933.72
2017-07-17T12:31:56.168Z,933.68
2017-07-17T12:32:09.067Z,933.71
2017-07-17T12:32:22.505Z,933.69
2017-07-17T12:32:35.426Z,933.71
2017-07-17T12:32:48.260Z,933.72
2017-07-17T12:33:01.643Z,933.71
2017-07-17T12:33:14.106Z,933.74
2017-07-17T12:33:27.529Z,933.74
2017-07-17T12:33:39.945Z,933.76
2017-07-17T12:33:53.390Z,933.71
2017-07-17T12:34:06.846Z,933.73
2017-07-17T12:34:19.797Z,933.74
2017-07-17T12:34:33.261Z,933.74
2017-07-17T12:34:46.158Z,933.75
2017-07-17T12:34:59.672Z,933.71
2017-07-17T12:35:13.603Z,933.76
2017-07-17T12:35:27.142Z,933.7
2017-07-17T12:35:39.003Z,933.72
2017-07-17T12:35:51.894Z,933.71
2017-07-17T12:36:05.341Z,933.75
2017-07-17T12:36:17.768Z,933.76
2017-07-17T12:36:30.714Z,933.74
2017-07-17T12:36:44.120Z,933.78
2017-07-17T12:36:56.983Z,933.76
2017-07-17T12:37:09.931Z,933.76
2017-07-17T12:37:23.350Z,933.77
2017-07-17T12:37:36.852Z,933.77
2017-07-17T12:37:49.788Z,933.75
2017-07-17T12:38:02.712Z,933.75
2017-07-17T12:38:15.672Z,933.74
2017-07-17T12:38:28.022Z,933.8
2017-07-17T12:38:41.453Z,933.79
2017-07-17T12:38:54.909Z,933.79
2017-07-17T12:39:07.839Z,933.79
2017-07-17T12:39:20.732Z,933.77
2017-07-17T12:39:34.255Z,933.77
2017-07-17T12:39:47.655Z,933.78
2017-07-17T12:40:01.017Z,933.76
2017-07-17T12:40:14.033Z,933.77
2017-07-17T12:40:26.919Z,933.75
2017-07-17T12:40:40.336Z,933.74
2017-07-17T12:40:53.264Z,933.74
2017-07-17T12:41:06.662Z,933.75
2017-07-17T12:41:20.124Z,933.77
2017-07-17T12:41:33.564Z,933.72
2017-07-17T12:41:46.996Z,933.77
2017-07-17T12:41:59.396Z,933.76
2017-07-17T12:42:12.870Z,933.75
2017-07-17T12:42:25.830Z,933.74
2017-07-17T12:42:38.778Z,933.72
2017-07-17T12:42:51.733Z,933.7
2017-07-17T12:43:05.177Z,933.71
2017-07-17T12:43:18.642Z,933.71
2017-07-17T12:43:31.574Z,933.72
2017-07-17T12:43:44.422Z,933.74
2017-07-17T12:43:57.876Z,933.74
2017-07-17T12:44:11.227Z,933.74
2017-07-17T12:44:24.174Z,933.72
2017-07-17T12:44:37.649Z,933.75
2017-07-17T12:44:50.068Z,933.76
2017-07-17T12:45:03.565Z,933.78
2017-07-17T12:45:16.461Z,933.73
2017-07-17T12:45:29.356Z,933.75
2017-07-17T12:45:42.285Z,933.71
2017-07-17T12:45:55.738Z,933.73
2017-07-17T12:46:08.683Z,933.74
2017-07-17T12:46:22.160Z,933.72
2017-07-17T12:46:35.630Z,933.73
2017-07-17T12:46:49.136Z,933.73
2017-07-17T12:47:02.576Z,933.72
2017-07-17T12:47:14.401Z,933.72
2017-07-17T12:47:27.327Z,933.75
2017-07-17T12:47:40.739Z,933.75
2017-07-17T12:47:54.148Z,933.73
2017-07-17T12:48:07.568Z,933.73
2017-07-17T12:48:20.477Z,933.73
2017-07-17T12:48:33.921Z,933.72
2017-07-17T12:48:47.837Z,933.74
2017-07-17T12:49:00.247Z,933.74
2017-07-17T12:49:13.206Z,933.74
2017-07-17T12:49:26.162Z,933.7
2017-07-17T12:49:39.632Z,933.71
2017-07-17T12:49:52.550Z,933.68
2017-07-17T12:50:06.021Z,933.69
2017-07-17T12:50:19.443Z,933.69
2017-07-17T12:50:32.385Z,933.75
2017-07-17T12:50:45.776Z,933.68
2017-07-17T12:50:59.204Z,933.71
2017-07-17T12:51:12.676Z,933.7
2017-07-17T12:51:25.054Z,933.7
2017-07-17T12:51:37.975Z,933.72
2017-07-17T12:51:50.877Z,933.69
2017-07-17T12:52:04.344Z,933.73
2017-07-17T12:52:17.794Z,933.72
2017-07-17T12:52:30.717Z,933.73
2017-07-17T12:52:42.581Z,933.73
2017-07-17T12:52:55.459Z,933.72
2017-07-17T12:53:08.374Z,933.74
2017-07-17T12:53:21.325Z,933.7
2017-07-17T12:53:34.747Z,933.72
2017-07-17T12:53:47.715Z,933.71
2017-07-17T12:54:01.170Z,933.73
2017-07-17T12:54:14.154Z,933.71
2017-07-17T12:54:27.571Z,933.74
2017-07-17T12:54:39.916Z,933.73
2017-07-17T12:54:52.802Z,933.71
2017-07-17T12:55:05.185Z,933.69
2017-07-17T12:55:17.538Z,933.73
2017-07-17T12:55:30.987Z,933.72
2017-07-17T12:55:44.416Z,933.73
2017-07-17T12:55:57.859Z,933.75
2017-07-17T12:56:10.783Z,933.76
2017-07-17T12:56:23.761Z,933.74
2017-07-17T12:56:36.682Z,933.76
2017-07-17T12:56:50.109Z,933.74
2017-07-17T12:57:03.539Z,933.77
2017-07-17T12:57:16.400Z,933.74
2017-07-17T12:57:29.873Z,933.74
2017-07-17T12:57:42.744Z,933.76
2017-07-17T12:57:56.179Z,933.73
2017-07-17T12:58:08.997Z,933.76
2017-07-17T12:58:22.529Z,933.76
2017-07-17T12:58:35.959Z,933.78
2017-07-17T12:58:49.010Z,933.78
2017-07-17T12:59:01.937Z,933.76
2017-07-17T12:59:14.330Z,933.75
2017-07-17T12:59:27.824Z,933.75
2017-07-17T12:59:41.288Z,933.75
2017-07-17T12:59:54.796Z,933.77
2017-07-17T13:00:08.247Z,933.76
2017-07-17T13:00:21.158Z,933.71
2017-07-17T13:00:34.632Z,933.73
2017-07-17T13:00:48.082Z,933.68
2017-07-17T13:01:00.954Z,933.73
2017-07-17T13:01:13.292Z,933.77
2017-07-17T13:01:26.691Z,933.72
2017-07-17T13:01:40.125Z,933.74
2017-07-17T13:01:53.031Z,933.7
2017-07-17T13:02:05.937Z,933.74
2017-07-17T13:02:18.240Z,933.71
2017-07-17T13:02:31.115Z,933.7
2017-07-17T13:02:43.980Z,933.73
2017-07-17T13:02:56.952Z,933.71
2017-07-17T13:03:09.900Z,933.72
2017-07-17T13:03:23.377Z,933.71
2017-07-17T13:03:36.220Z,933.71
2017-07-17T13:03:47.613Z,933.75
2017-07-17T13:03:59.971Z,933.73
2017-07-17T13:04:13.404Z,933.71
2017-07-17T13:04:26.789Z,933.7
2017-07-17T13:04:39.715Z,933.75
2017-07-17T13:04:53.168Z,933.72
2017-07-17T13:05:06.666Z,933.72
2017-07-17T13:05:19.049Z,933.73
2017-07-17T13:05:32.509Z,933.74
2017-07-17T13:05:45.441Z,933.73
2017-07-17T13:05:58.931Z,933.77
2017-07-17T13:06:12.450Z,933.75
2017-07-17T13:06:25.954Z,933.75
2017-07-17T13:06:38.825Z,933.73
2017-07-17T13:06:52.246Z,933.75
2017-07-17T13:07:05.683Z,933.72
2017-07-17T13:07:19.134Z,933.73
2017-07-17T13:07:32.128Z,933.74
2017-07-17T13:07:45.627Z,933.73
2017-07-17T13:07:59.054Z,933.74
2017-07-17T13:08:12.018Z,933.74
2017-07-17T13:08:24.926Z,933.72
2017-07-17T13:08:37.746Z,933.72
2017-07-17T13:08:51.211Z,933.74
2017-07-17T13:09:04.684Z,933.72
2017-07-17T13:09:17.550Z,933.7
2017-07-17T13:09:30.996Z,933.71
2017-07-17T13:09:42.867Z,933.71
2017-07-17T13:09:56.355Z,933.73
2017-07-17T13:10:08.790Z,933.67
2017-07-17T13:10:22.308Z,933.7
2017-07-17T13:10:35.194Z,933.7
2017-07-17T13:10:48.674Z,933.64
2017-07-17T13:11:01.610Z,933.66
2017-07-17T13:11:14.763Z,933.7
2017-07-17T13:11:28.209Z,933.69
2017-07-17T13:11:41.683Z,933.69
2017-07-17T13:11:54.606Z,933.73
2017-07-17T13:12:08.070Z,933.67
2017-07-17T13:12:21.521Z,933.7
2017-07-17T13:12:34.449Z,933.72
2017-07-17T13:12:47.888Z,933.72
2017-07-17T13:13:00.833Z,933.71
2017-07-17T13:13:13.749Z,933.72
2017-07-17T13:13:27.229Z,933.73
2017-07-17T13:13:40.730Z,933.71
2017-07-17T13:13:53.639Z,933.71
2017-07-17T13:14:07.112Z,933.73
2017-07-17T13:14:20.571Z,933.73
2017-07-17T13:14:33.446Z,933.74
2017-07-17T13:14:46.887Z,933.7
2017-07-17T13:15:00.320Z,933.7
2017-07-17T13:15:13.848Z,933.71
2017-07-17T13:15:26.786Z,933.68
2017-07-17T13:15:40.219Z,933.7
2017-07-17T13:15:53.159Z,933.7
2017-07-17T13:16:05.539Z,933.68
2017-07-17T13:16:17.954Z,933.66
2017-07-17T13:16:31.431Z,933.69
2017-07-17T13:16:44.389Z,933.69
2017-07-17T13:16:57.260Z,933.68
2017-07-17T13:17:12.363Z,933.69
2017-07-17T13:17:25.867Z,933.64
2017-07-17T13:17:39.327Z,933.67
2017-07-17T13:17:52.174Z,933.65
2017-07-17T13:18:05.579Z,933.64
2017-07-17T13:18:19.073Z,933.67
2017-07-17T13:18:32.514Z,933.66
2017-07-17T13:18:45.955Z,933.65
2017-07-17T13:18:59.808Z,933.64
2017-07-17T13:19:12.154Z,933.64
2017-07-17T13:19:25.590Z,933.68
2017-07-17T13:19:39.069Z,933.68
2017-07-17T13:19:51.973Z,933.66
2017-07-17T13:20:05.476Z,933.67
2017-07-17T13:20:18.468Z,933.68
2017-07-17T13:20:31.880Z,933.66
2017-07-17T13:20:44.844Z,933.64
2017-07-17T13:20:57.298Z,933.66
2017-07-17T13:21:10.754Z,933.65
2017-07-17T13:21:23.660Z,933.66
2017-07-17T13:21:36.619Z,933.67
2017-07-17T13:21:50.293Z,933.65
2017-07-17T13:22:03.269Z,933.64
2017-07-17T13:22:16.745Z,933.62
2017-07-17T13:22:29.653Z,933.64
2017-07-17T13:22:43.072Z,933.64
2017-07-17T13:22:56.556Z,933.66
2017-07-17T13:23:09.502Z,933.68
2017-07-17T13:23:23.051Z,933.62
2017-07-17T13:23:36.490Z,933.66
2017-07-17T13:23:49.421Z,933.59
2017-07-17T13:24:02.339Z,933.66
2017-07-17T13:24:15.769Z,933.66
2017-07-17T13:24:28.185Z,933.62
2017-07-17T13:24:40.045Z,933.64
2017-07-17T13:24:52.979Z,933.65
2017-07-17T13:25:05.873Z,933.63
2017-07-17T13:25:18.761Z,933.66
2017-07-17T13:25:31.621Z,933.6
2017-07-17T13:25:44.521Z,933.62
2017-07-17T13:25:57.955Z,933.6
2017-07-17T13:26:11.425Z,933.58
2017-07-17T13:26:24.351Z,933.61
2017-07-17T13:26:37.790Z,933.62
2017-07-17T13:26:51.288Z,933.63
2017-07-17T13:27:04.245Z,933.58
2017-07-17T13:27:17.720Z,933.58
2017-07-17T13:27:31.179Z,933.56
2017-07-17T13:27:44.101Z,933.57
2017-07-17T13:27:57.077Z,933.58
2017-07-17T13:28:10.485Z,933.58
2017-07-17T13:28:22.888Z,933.6
2017-07-17T13:28:36.340Z,933.59
2017-07-17T13:28:48.709Z,933.61
2017-07-17T13:29:01.696Z,933.57
2017-07-17T13:29:15.109Z,933.59
2017-07-17T13:29:28.018Z,933.6
2017-07-17T13:29:40.951Z,933.55
2017-07-17T13:29:54.402Z,933.61
2017-07-17T13:30:07.323Z,933.57
2017-07-17T13:30:20.778Z,933.57
2017-07-17T13:30:34.259Z,933.58
2017-07-17T13:30:47.201Z,933.61
2017-07-17T13:30:59.575Z,933.59
2017-07-17T13:31:12.437Z,933.61
2017-07-17T13:31:25.344Z,933.62
2017-07-17T13:31:38.281Z,933.6
2017-07-17T13:31:50.669Z,933.56
2017-07-17T13:32:04.140Z,933.54
2017-07-17T13:32:17.073Z,933.58
2017-07-17T13:32:29.982Z,933.56
2017-07-17T13:32:42.827Z,933.58
2017-07-17T13:32:55.746Z,933.62
2017-07-17T13:33:09.201Z,933.57
2017-07-17T13:33:22.131Z,933.56
2017-07-17T13:33:35.002Z,933.59
2017-07-17T13:33:48.511Z,933.59
2017-07-17T13:34:02.309Z,933.58
2017-07-17T13:34:15.816Z,933.56
2017-07-17T13:34:28.723Z,933.59
2017-07-17T13:34:42.226Z,933.56
2017-07-17T13:34:55.487Z,933.56
2017-07-17T13:35:09.439Z,933.55
2017-07-17T13:35:21.884Z,933.57
2017-07-17T13:35:35.373Z,933.57
2017-07-17T13:35:48.833Z,933.55
2017-07-17T13:36:02.299Z,933.57
2017-07-17T13:36:15.215Z,933.55
2017-07-17T13:36:28.110Z,933.58
2017-07-17T13:36:41.611Z,933.58
2017-07-17T13:36:55.018Z,933.58
2017-07-17T13:37:07.932Z,933.56
2017-07-17T13:37:21.387Z,933.57
2017-07-17T13:37:34.831Z,933.56
2017-07-17T13:37:48.241Z,933.54
2017-07-17T13:38:00.610Z,933.55
2017-07-17T13:38:12.975Z,933.57
2017-07-17T13:38:25.880Z,933.59
2017-07-17T13:38:39.356Z,933.54
2017-07-17T13:38:52.251Z,933.59
2017-07-17T13:39:05.435Z,933.55
2017-07-17T13:39:18.882Z,933.56
2017-07-17T13:39:31.823Z,933.53
2017-07-17T13:39:45.231Z,933.52
2017-07-17T13:39:58.688Z,933.55
2017-07-17T13:40:11.674Z,933.52
2017-07-17T13:40:25.196Z,933.52
2017-07-17T13:40:38.107Z,933.54
2017-07-17T13:40:51.517Z,933.49
2017-07-17T13:41:03.946Z,933.52
2017-07-17T13:41:16.361Z,933.49
2017-07-17T13:41:29.805Z,933.52
2017-07-17T13:41:42.663Z,933.54
2017-07-17T13:41:56.071Z,933.5
2017-07-17T13:42:09.494Z,933.53
2017-07-17T13:42:22.447Z,933.51
2017-07-17T13:42:35.349Z,933.55
2017-07-17T13:42:48.837Z,933.52
2017-07-17T13:43:02.260Z,933.56
2017-07-17T13:43:15.122Z,933.55
2017-07-17T13:43:27.988Z,933.56
2017-07-17T13:43:40.927Z,933.5
2017-07-17T13:43:54.365Z,933.52
2017-07-17T13:44:07.245Z,933.54
2017-07-17T13:44:20.731Z,933.5
2017-07-17T13:44:34.207Z,933.5
2017-07-17T13:44:46.589Z,933.52
2017-07-17T13:44:58.960Z,933.52
2017-07-17T13:45:11.893Z,933.5
2017-07-17T13:45:25.319Z,933.49
2017-07-17T13:45:37.197Z,933.51
2017-07-17T13:45:50.600Z,933.52
2017-07-17T13:46:04.028Z,933.45
2017-07-17T13:46:16.377Z,933.43
2017-07-17T13:46:29.856Z,933.45
2017-07-17T13:46:42.780Z,933.45
2017-07-17T13:46:55.691Z,933.45
2017-07-17T13:47:08.532Z,933.45
2017-07-17T13:47:21.983Z,933.43
2017-07-17T13:47:34.894Z,933.43
2017-07-17T13:47:47.846Z,933.37
2017-07-17T13:48:01.299Z,933.4
2017-07-17T13:48:14.216Z,933.44
2017-07-17T13:48:27.703Z,933.44
2017-07-17T13:48:39.509Z,933.44
2017-07-17T13:48:51.896Z,933.45
2017-07-17T13:49:05.800Z,933.41
2017-07-17T13:49:18.725Z,933.42
2017-07-17T13:49:32.163Z,933.47
2017-07-17T13:49:45.113Z,933.41
2017-07-17T13:49:58.611Z,933.43
2017-07-17T13:50:10.460Z,933.42
2017-07-17T13:50:23.896Z,933.42
2017-07-17T13:50:37.315Z,933.39
2017-07-17T13:50:49.172Z,933.43
2017-07-17T13:51:02.123Z,933.38
2017-07-17T13:51:15.048Z,933.38
2017-07-17T13:51:27.981Z,933.39
2017-07-17T13:51:40.890Z,933.39
2017-07-17T13:51:54.378Z,933.41
2017-07-17T13:52:06.804Z,933.37
2017-07-17T13:52:19.218Z,933.38
2017-07-17T13:52:31.605Z,933.42
2017-07-17T13:52:44.518Z,933.4
2017-07-17T13:53:09.540Z,933.4
2017-07-17T13:53:22.541Z,933.34
2017-07-17T13:53:35.973Z,933.36
2017-07-17T13:53:49.433Z,933.43
2017-07-17T13:54:02.854Z,933.44
2017-07-17T13:54:15.434Z,933.41
2017-07-17T13:54:28.935Z,933.39
2017-07-17T13:54:42.414Z,933.39
2017-07-17T13:54:55.314Z,933.36
2017-07-17T13:55:08.814Z,933.39
2017-07-17T13:55:22.205Z,933.37
2017-07-17T13:55:35.684Z,933.37
2017-07-17T13:55:49.111Z,933.4
2017-07-17T13:56:02.009Z,933.38
2017-07-17T13:56:15.469Z,933.36
2017-07-17T13:56:28.953Z,933.35
2017-07-17T13:56:42.425Z,933.32
2017-07-17T13:56:55.883Z,933.37
2017-07-17T13:57:09.374Z,933.34
2017-07-17T13:57:22.304Z,933.39
2017-07-17T13:57:35.759Z,933.38
2017-07-17T13:57:49.247Z,933.38
2017-07-17T13:58:02.717Z,933.34
2017-07-17T13:58:15.603Z,933.34
2017-07-17T13:58:29.069Z,933.35
2017-07-17T13:58:42.510Z,933.34
2017-07-17T13:58:55.949Z,933.33
2017-07-17T13:59:08.881Z,933.33
2017-07-17T13:59:21.978Z,933.31
2017-07-17T13:59:35.413Z,933.32
2017-07-17T13:59:48.841Z,933.32
2017-07-17T14:00:02.331Z,933.32
2017-07-17T14:00:14.726Z,933.31
2017-07-17T14:00:27.717Z,933.3
2017-07-17T14:00:41.136Z,933.3
2017-07-17T14:00:54.664Z,933.3
2017-07-17T14:01:07.642Z,933.24
2017-07-17T14:01:21.099Z,933.3
2017-07-17T14:01:33.981Z,933.29
2017-07-17T14:01:46.927Z,933.3
2017-07-17T14:02:00.363Z,933.29
2017-07-17T14:02:13.293Z,933.29
2017-07-17T14:02:26.237Z,933.27
2017-07-17T14:02:39.663Z,933.26
2017-07-17T14:02:52.629Z,933.22
2017-07-17T14:03:05.572Z,933.25
2017-07-17T14:03:19.024Z,933.23
2017-07-17T14:03:32.561Z,933.25
2017-07-17T14:03:45.971Z,933.22
2017-07-17T14:03:59.334Z,933.24
2017-07-17T14:04:12.857Z,933.26
2017-07-17T14:04:25.813Z,933.26
2017-07-17T14:04:38.686Z,933.24
2017-07-17T14:04:51.101Z,933.26
2017-07-17T14:05:04.588Z,933.23
2017-07-17T14:05:18.110Z,933.24
2017-07-17T14:05:31.582Z,933.23
2017-07-17T14:05:45.046Z,933.24
2017-07-17T14:05:58.467Z,933.25
2017-07-17T14:06:10.877Z,933.24
2017-07-17T14:06:24.358Z,933.23
2017-07-17T14:06:37.815Z,933.25
2017-07-17T14:06:51.230Z,933.23
2017-07-17T14:07:04.654Z,933.25
2017-07-17T14:07:18.141Z,933.23
2017-07-17T14:07:31.617Z,933.22
2017-07-17T14:07:44.576Z,933.22
2017-07-17T14:07:57.481Z,933.23
2017-07-17T14:08:10.404Z,933.21
2017-07-17T14:08:23.837Z,933.19
2017-07-17T14:08:36.762Z,933.2
2017-07-17T14:08:50.220Z,933.19
2017-07-17T14:09:03.657Z,933.21
2017-07-17T14:09:17.135Z,933.18
2017-07-17T14:09:30.053Z,933.18
2017-07-17T14:09:43.629Z,933.2
2017-07-17T14:09:56.556Z,933.16
2017-07-17T14:10:09.988Z,933.2
2017-07-17T14:10:22.876Z,933.19
2017-07-17T14:10:36.340Z,933.19
2017-07-17T14:10:49.279Z,933.2
2017-07-17T14:11:02.217Z,933.2
2017-07-17T14:11:15.134Z,933.22
2017-07-17T14:11:28.110Z,933.21
2017-07-17T14:11:40.525Z,933.19
2017-07-17T14:11:53.488Z,933.21
2017-07-17T14:12:05.913Z,933.2
2017-07-17T14:12:18.851Z,933.2
2017-07-17T14:12:31.735Z,933.17
2017-07-17T14:12:45.156Z,933.2
2017-07-17T14:12:58.087Z,933.18
2017-07-17T14:13:11.498Z,933.14
2017-07-17T14:13:24.925Z,933.19
2017-07-17T14:13:37.855Z,933.17
2017-07-17T14:13:50.800Z,933.2
2017-07-17T14:14:04.289Z,933.17
2017-07-17T14:14:17.820Z,933.18
2017-07-17T14:14:30.761Z,933.19
2017-07-17T14:14:43.695Z,933.16
2017-07-17T14:14:57.100Z,933.15
2017-07-17T14:15:10.015Z,933.18
2017-07-17T14:15:23.427Z,933.17
2017-07-17T14:15:36.841Z,933.17
2017-07-17T14:15:49.756Z,933.12
2017-07-17T14:16:03.220Z,933.16
2017-07-17T14:16:16.166Z,933.19
2017-07-17T14:16:29.593Z,933.16
2017-07-17T14:16:43.086Z,933.19
2017-07-17T14:16:55.487Z,933.16
2017-07-17T14:17:08.428Z,933.15
2017-07-17T14:17:20.828Z,933.18
2017-07-17T14:17:33.719Z,933.14
2017-07-17T14:17:46.616Z,933.16
2017-07-17T14:17:59.588Z,933.15
2017-07-17T14:18:11.983Z,933.15
2017-07-17T14:18:25.504Z,933.15
2017-07-17T14:18:38.984Z,933.14
2017-07-17T14:18:52.491Z,933.13
2017-07-17T14:19:05.936Z,933.15
2017-07-17T14:19:20.033Z,933.12
2017-07-17T14:19:33.414Z,933.15
2017-07-17T14:19:46.858Z,933.15
2017-07-17T14:19:59.281Z,933.14
2017-07-17T14:20:12.783Z,933.12
2017-07-17T14:20:26.177Z,933.14
2017-07-17T14:20:38.560Z,933.12
2017-07-17T14:20:52.034Z,933.14
2017-07-17T14:21:05.469Z,933.13
2017-07-17T14:21:18.369Z,933.1
2017-07-17T14:21:31.297Z,933.12
2017-07-17T14:21:43.662Z,933.1
2017-07-17T14:21:57.116Z,933.06
2017-07-17T14:22:10.598Z,933.1
2017-07-17T14:22:24.076Z,933.07
2017-07-17T14:22:37.563Z,933.13
2017-07-17T14:22:50.523Z,933.09
2017-07-17T14:23:03.428Z,933.1
2017-07-17T14:23:16.886Z,933.15
2017-07-17T14:23:30.398Z,933.08
2017-07-17T14:23:42.790Z,933.09
2017-07-17T14:23:56.270Z,933.11
2017-07-17T14:24:09.714Z,933.09
2017-07-17T14:24:22.643Z,933.1
2017-07-17T14:24:35.541Z,933.11
2017-07-17T14:24:47.435Z,933.11
2017-07-17T14:25:00.344Z,933.09
2017-07-17T14:25:13.295Z,933.09
2017-07-17T14:25:26.159Z,933.1
2017-07-17T14:25:39.582Z,933.11
2017-07-17T14:25:52.000Z,933.07
2017-07-17T14:26:05.443Z,933.11
2017-07-17T14:26:17.863Z,933.09
2017-07-17T14:26:30.817Z,933.1
2017-07-17T14:26:44.239Z,933.08
2017-07-17T14:26:56.116Z,933.09
2017-07-17T14:27:09.020Z,933.08
2017-07-17T14:27:22.453Z,933.1
2017-07-17T14:27:35.408Z,933.07
2017-07-17T14:27:48.833Z,933.09
2017-07-17T14:28:01.199Z,933.06
2017-07-17T14:28:14.162Z,933.05
2017-07-17T14:28:27.569Z,933.06
2017-07-17T14:28:40.507Z,933.07
2017-07-17T14:28:53.939Z,933.09